Time;durP1;ratioP1;P1;durP2;ratioP2;P2;SDS_P1;SDS_P2;PMS_P1;PMS_P2;Temp;Humidity;BMP_temperature;BMP_pressure;BME280_temperature;BME280_humidity;BME280_pressure;Samples;Min_cycle;Max_cycle;Signal;HPM_P1;HPM_P2
2022/11/20 00:00:19;;;;;;;29.60;17.95;;;;;;;2.81;93.71;100518.16;4995034;28;20078;-80
2022/11/20 00:02:46;;;;;;;25.52;16.17;;;;;;;2.80;93.48;100519.09;4997464;28;20105;-78
2022/11/20 00:05:13;;;;;;;29.95;17.35;;;;;;;2.87;93.27;100507.34;5001128;28;20056;-79
2022/11/20 00:07:39;;;;;;;29.50;17.88;;;;;;;2.89;92.64;100510.66;5019829;28;20136;-79
2022/11/20 00:10:07;;;;;;;27.00;17.88;;;;;;;2.86;92.38;100510.88;5007227;28;20145;-77
2022/11/20 00:12:35;;;;;;;34.38;18.17;;;;;;;2.88;92.74;100502.09;4999758;28;20049;-79
2022/11/20 00:15:01;;;;;;;28.15;17.67;;;;;;;2.80;93.05;100519.09;4983720;28;20081;-79
2022/11/20 00:17:28;;;;;;;29.55;17.73;;;;;;;2.75;92.84;100513.44;4998229;28;20393;-80
2022/11/20 00:19:55;;;;;;;28.67;17.42;;;;;;;2.76;93.48;100518.47;4998812;28;20053;-79
2022/11/20 00:22:22;;;;;;;29.60;17.88;;;;;;;2.90;93.34;100525.22;4999021;28;20050;-77
2022/11/20 00:24:49;;;;;;;29.17;17.75;;;;;;;2.81;93.48;100518.16;4999260;28;20054;-79
2022/11/20 00:27:15;;;;;;;26.10;16.63;;;;;;;2.76;92.82;100515.91;4997659;28;20057;-78
2022/11/20 00:29:45;;;;;;;29.33;17.70;;;;;;;2.80;93.13;100507.00;4996589;28;20394;-79
2022/11/20 00:32:12;;;;;;;30.13;16.55;;;;;;;2.72;92.77;100509.31;5003359;28;20603;-78
2022/11/20 00:34:39;;;;;;;30.45;17.75;;;;;;;2.78;93.38;100511.44;5005166;28;20047;-79
2022/11/20 00:37:06;;;;;;;28.10;16.77;;;;;;;2.71;92.91;100510.22;4996755;28;20428;-78
2022/11/20 00:39:33;;;;;;;28.02;17.63;;;;;;;2.66;93.53;100509.72;4994325;28;20042;-79
2022/11/20 00:42:00;;;;;;;26.92;16.92;;;;;;;2.64;93.87;100502.09;4997292;28;20076;-78
2022/11/20 00:44:27;;;;;;;26.85;17.63;;;;;;;2.70;93.84;100500.84;4997243;28;20110;-79
2022/11/20 00:46:55;;;;;;;28.23;16.95;;;;;;;2.76;93.36;100508.16;4979295;28;20050;-78
2022/11/20 00:49:22;;;;;;;27.45;16.30;;;;;;;2.76;93.13;100509.91;4981033;28;20062;-79
2022/11/20 00:51:49;;;;;;;28.13;17.02;;;;;;;2.77;93.01;100514.97;5000882;28;20069;-78
2022/11/20 00:54:16;;;;;;;26.88;17.08;;;;;;;2.73;93.15;100517.88;4995655;28;20770;-78
2022/11/20 00:56:43;;;;;;;28.42;17.58;;;;;;;2.67;93.43;100507.03;4997720;28;20061;-79
2022/11/20 00:59:10;;;;;;;29.55;17.92;;;;;;;2.71;93.89;100510.22;4999808;28;20042;-79
2022/11/20 01:01:38;;;;;;;28.35;17.35;;;;;;;2.72;93.17;100500.72;5001025;28;20062;-78
2022/11/20 01:04:06;;;;;;;28.13;18.27;;;;;;;2.70;93.13;100508.59;5004033;28;20057;-79
2022/11/20 01:06:35;;;;;;;27.25;16.88;;;;;;;2.70;92.99;100511.16;5004486;28;20065;-78
2022/11/20 01:09:04;;;;;;;28.20;17.10;;;;;;;2.67;93.06;100503.63;5008402;28;20559;-78
2022/11/20 01:11:33;;;;;;;28.70;18.35;;;;;;;2.68;93.08;100510.44;5001217;28;20050;-78
2022/11/20 01:14:01;;;;;;;26.35;17.38;;;;;;;2.66;92.96;100504.56;4997034;28;20046;-79
2022/11/20 01:16:30;;;;;;;28.75;17.25;;;;;;;2.73;93.43;100508.38;4995664;28;20081;-79
2022/11/20 01:18:58;;;;;;;31.58;18.73;;;;;;;2.71;93.15;100506.81;4995447;28;20046;-79
2022/11/20 01:21:28;;;;;;;29.48;17.95;;;;;;;2.72;92.97;100500.72;4996681;28;20510;-79
2022/11/20 01:23:56;;;;;;;29.48;17.67;;;;;;;2.73;92.28;100498.03;4996488;28;20050;-79
2022/11/20 01:26:24;;;;;;;27.45;17.55;;;;;;;2.70;93.10;100495.66;4997187;28;20050;-79
2022/11/20 01:28:52;;;;;;;28.25;16.70;;;;;;;2.79;92.56;100500.19;4996061;28;20073;-80
2022/11/20 01:31:21;;;;;;;29.27;17.77;;;;;;;2.86;92.37;100506.53;4995717;28;20141;-78
2022/11/20 01:33:50;;;;;;;28.27;17.23;;;;;;;2.65;93.13;100492.56;4995068;28;20106;-79
2022/11/20 01:36:18;;;;;;;27.58;16.45;;;;;;;2.63;93.46;100487.53;4997464;28;20108;-78
2022/11/20 01:38:46;;;;;;;35.13;18.23;;;;;;;2.63;93.33;100499.63;4995913;28;20563;-78
2022/11/20 01:43:20;;;;;;;28.55;17.58;;;;;;;2.60;92.84;100482.56;4998269;28;20169;-79
2022/11/20 01:44:03;;;;;;;31.60;17.00;;;;;;;2.59;93.28;100483.50;4996593;28;20054;-78
2022/11/20 01:46:29;;;;;;;29.23;17.15;;;;;;;2.63;93.24;100486.69;4996008;28;20129;-79
2022/11/20 01:49:02;;;;;;;26.38;16.00;;;;;;;2.64;93.18;100483.19;4996623;28;20081;-80
2022/11/20 01:51:33;;;;;;;30.00;17.60;;;;;;;2.70;94.00;100477.56;4998083;28;20113;-80
2022/11/20 01:54:06;;;;;;;32.00;17.98;;;;;;;2.71;93.41;100473.22;4997382;28;20501;-79
2022/11/20 01:56:37;;;;;;;27.40;17.38;;;;;;;2.70;92.87;100469.00;4975967;28;20086;-77
2022/11/20 01:59:06;;;;;;;28.88;17.15;;;;;;;2.72;93.00;100462.78;4976352;28;20100;-79
2022/11/20 02:01:33;;;;;;;28.65;17.25;;;;;;;2.70;93.10;100456.91;4993970;28;20081;-79
2022/11/20 02:04:01;;;;;;;29.63;17.45;;;;;;;2.66;92.78;100458.88;4999065;28;20473;-79
2022/11/20 02:06:32;;;;;;;24.85;16.42;;;;;;;2.73;92.44;100467.03;4997768;28;20133;-79
2022/11/20 02:08:59;;;;;;;27.90;17.05;;;;;;;2.71;92.75;100462.91;5025477;23;20070;-79
2022/11/20 02:11:27;;;;;;;27.88;17.75;;;;;;;2.63;92.84;100466.03;5014476;28;20114;-79
2022/11/20 02:13:54;;;;;;;27.63;17.35;;;;;;;2.64;93.23;100467.69;5026653;28;20050;-78
2022/11/20 02:16:24;;;;;;;29.50;17.30;;;;;;;2.62;93.82;100465.19;5000403;28;20054;-78
2022/11/20 02:18:52;;;;;;;28.42;17.30;;;;;;;2.66;93.15;100466.63;5002377;28;20122;-78
2022/11/20 02:21:27;;;;;;;28.98;17.45;;;;;;;2.70;93.78;100456.91;5002227;28;20409;-78
2022/11/20 02:24:03;;;;;;;27.48;17.85;;;;;;;2.73;93.70;100467.03;4996422;28;20066;-79
2022/11/20 02:26:32;;;;;;;31.05;16.77;;;;;;;2.74;94.34;100471.25;4982033;28;20525;-78
2022/11/20 02:29:00;;;;;;;27.02;16.60;;;;;;;2.70;94.00;100462.06;4981851;28;20097;-78
2022/11/20 02:31:27;;;;;;;29.77;18.02;;;;;;;2.65;93.83;100459.00;4982103;28;20077;-79
2022/11/20 02:33:57;;;;;;;25.75;16.90;;;;;;;2.62;93.91;100448.88;4982739;28;20171;-80
2022/11/20 02:36:27;;;;;;;29.42;17.73;;;;;;;2.65;93.86;100449.47;4982480;28;20082;-79
2022/11/20 02:38:54;;;;;;;28.70;17.17;;;;;;;2.58;93.64;100455.19;4982685;28;20080;-78
2022/11/20 02:41:22;;;;;;;29.70;17.20;;;;;;;2.60;93.97;100455.91;4980988;28;20047;-78
2022/11/20 02:43:48;;;;;;;30.75;18.33;;;;;;;2.57;94.43;100438.03;4978860;28;20050;-79
2022/11/20 02:46:15;;;;;;;28.15;16.88;;;;;;;2.63;94.79;100446.19;4984403;28;20142;-79
2022/11/20 02:48:42;;;;;;;27.70;17.02;;;;;;;2.63;94.07;100453.13;4995978;28;20272;-79
2022/11/20 02:51:08;;;;;;;27.13;16.80;;;;;;;2.72;94.06;100457.63;4999178;28;20065;-78
2022/11/20 02:53:35;;;;;;;30.00;18.10;;;;;;;2.78;94.92;100451.19;4999569;28;20110;-78
2022/11/20 02:56:02;;;;;;;28.13;17.55;;;;;;;2.76;94.43;100459.06;4981948;28;20062;-78
2022/11/20 02:58:30;;;;;;;29.77;18.33;;;;;;;2.80;94.65;100457.91;4976373;28;21747;-77
2022/11/20 03:00:56;;;;;;;28.25;17.77;;;;;;;2.85;94.99;100458.38;4981482;28;20046;-78
2022/11/20 03:03:23;;;;;;;29.23;17.83;;;;;;;2.90;95.33;100445.13;4995314;28;20085;-77
2022/11/20 03:05:49;;;;;;;26.38;17.65;;;;;;;2.88;96.27;100454.75;4994961;28;20069;-78
2022/11/20 03:08:16;;;;;;;27.85;16.95;;;;;;;2.89;95.66;100446.06;4992747;28;20046;-78
2022/11/20 03:10:43;;;;;;;28.85;18.13;;;;;;;2.93;96.09;100444.91;4992762;28;20050;-78
2022/11/20 03:13:09;;;;;;;27.63;17.40;;;;;;;2.92;95.92;100453.59;4992889;28;20101;-78
2022/11/20 03:15:38;;;;;;;26.65;17.73;;;;;;;2.89;96.39;100444.28;4987704;28;20121;-78
2022/11/20 03:18:05;;;;;;;26.23;17.05;;;;;;;2.88;96.24;100450.41;4974922;28;20106;-77
2022/11/20 03:20:33;;;;;;;27.13;18.30;;;;;;;2.93;96.58;100443.13;4976360;28;20070;-77
2022/11/20 03:23:00;;;;;;;30.15;18.65;;;;;;;2.94;96.55;100449.94;4976071;28;20082;-77
2022/11/20 03:25:27;;;;;;;28.40;17.48;;;;;;;2.91;96.42;100441.59;4974777;28;20143;-76
2022/11/20 03:27:54;;;;;;;26.90;17.67;;;;;;;2.88;95.94;100437.47;4975212;28;20079;-77
2022/11/20 03:30:21;;;;;;;31.65;18.52;;;;;;;2.87;96.40;100442.75;4973373;28;20089;-77
2022/11/20 03:32:49;;;;;;;29.20;17.95;;;;;;;2.85;96.35;100442.88;4973907;28;20054;-77
2022/11/20 03:35:16;;;;;;;29.65;18.08;;;;;;;2.90;97.29;100443.34;4982180;28;20080;-77
2022/11/20 03:37:42;;;;;;;27.95;18.02;;;;;;;2.84;96.68;100441.22;5006389;28;20097;-78
2022/11/20 03:40:10;;;;;;;29.00;18.05;;;;;;;2.80;96.65;100444.97;5000963;28;20074;-78
2022/11/20 03:42:45;;;;;;;25.83;16.45;;;;;;;2.82;96.22;100440.53;4984055;28;20077;-78
2022/11/20 03:45:12;;;;;;;27.67;17.20;;;;;;;2.81;96.66;100435.47;4985471;28;20058;-78
2022/11/20 03:47:39;;;;;;;30.75;18.15;;;;;;;2.73;96.46;100430.03;4983086;28;20051;-78
2022/11/20 03:50:08;;;;;;;29.83;17.98;;;;;;;2.77;95.90;100427.13;4981587;28;20043;-79
2022/11/20 03:52:34;;;;;;;32.60;18.95;;;;;;;2.71;96.61;100422.38;4983622;28;20086;-78
2022/11/20 03:55:01;;;;;;;29.17;17.77;;;;;;;2.61;96.21;100429.16;4984363;28;20070;-79
2022/11/20 03:57:28;;;;;;;28.10;17.98;;;;;;;2.55;96.35;100414.09;4984901;28;20050;-79
2022/11/20 03:59:54;;;;;;;26.85;16.98;;;;;;;2.46;96.29;100425.06;4986294;28;20106;-79
2022/11/20 04:02:21;;;;;;;31.85;18.45;;;;;;;2.35;96.68;100419.88;4984156;28;20051;-79
2022/11/20 04:04:47;;;;;;;30.75;18.52;;;;;;;2.25;96.91;100422.25;4988333;28;20074;-79
2022/11/20 04:07:16;;;;;;;28.52;17.67;;;;;;;2.23;97.24;100414.63;4982027;28;20086;-79
2022/11/20 04:09:42;;;;;;;28.70;16.88;;;;;;;2.17;97.75;100412.47;4979130;28;20093;-79
2022/11/20 04:12:09;;;;;;;30.67;17.77;;;;;;;2.21;98.12;100419.06;4998563;28;20085;-79
2022/11/20 04:14:36;;;;;;;29.88;18.13;;;;;;;2.11;98.42;100415.47;4986819;28;20071;-78
2022/11/20 04:17:04;;;;;;;30.17;18.17;;;;;;;2.13;98.80;100411.03;4986042;28;20050;-79
2022/11/20 04:19:30;;;;;;;29.58;18.00;;;;;;;2.08;99.13;100422.59;4981912;28;20070;-79
2022/11/20 04:21:57;;;;;;;32.83;18.90;;;;;;;2.11;99.42;100415.47;5000267;28;20496;-79
2022/11/20 04:24:25;;;;;;;29.80;18.40;;;;;;;2.11;99.35;100430.97;4988256;28;20097;-79
2022/11/20 04:26:52;;;;;;;31.08;17.67;;;;;;;2.11;99.49;100427.56;4991539;28;20648;-79
2022/11/20 04:29:18;;;;;;;28.73;18.48;;;;;;;2.27;99.77;100428.97;4998321;28;20106;-79
2022/11/20 04:31:45;;;;;;;29.58;18.35;;;;;;;2.46;99.67;100435.41;5000745;28;20454;-79
2022/11/20 04:34:12;;;;;;;29.70;18.48;;;;;;;2.36;99.12;100426.69;5003869;28;20050;-79
2022/11/20 04:36:39;;;;;;;28.35;18.15;;;;;;;2.43;99.31;100438.19;5003856;28;20070;-79
2022/11/20 04:39:07;;;;;;;31.60;18.17;;;;;;;2.49;98.83;100427.44;5001998;28;20445;-79
2022/11/20 04:41:36;;;;;;;29.60;17.60;;;;;;;2.49;98.90;100435.19;4996325;28;20382;-78
2022/11/20 04:44:05;;;;;;;30.50;18.73;;;;;;;2.51;99.18;100434.13;4982441;28;20472;-78
2022/11/20 04:46:34;;;;;;;29.98;18.17;;;;;;;2.62;98.50;100435.97;4980623;28;20206;-78
2022/11/20 04:49:00;;;;;;;29.20;18.45;;;;;;;2.61;98.48;100440.31;4978766;28;20091;-79
2022/11/20 04:51:27;;;;;;;29.23;18.40;;;;;;;2.66;98.10;100439.97;4978964;28;20529;-78
2022/11/20 04:53:54;;;;;;;29.38;16.98;;;;;;;2.73;98.67;100440.38;4984854;28;20089;-78
2022/11/20 04:56:21;;;;;;;26.25;17.23;;;;;;;2.68;97.68;100435.53;4991966;28;20126;-79
2022/11/20 04:58:49;;;;;;;33.33;19.05;;;;;;;2.72;98.34;100430.97;4977367;28;20513;-79
2022/11/20 05:01:17;;;;;;;31.05;19.13;;;;;;;2.74;97.95;100448.00;4977940;28;20139;-78
2022/11/20 05:03:47;;;;;;;28.15;18.23;;;;;;;2.76;98.12;100435.81;4979440;28;20075;-80
2022/11/20 05:06:15;;;;;;;29.63;17.92;;;;;;;2.74;97.92;100427.34;4982412;28;20130;-78
2022/11/20 05:08:42;;;;;;;30.48;18.00;;;;;;;2.68;97.50;100432.94;4981076;28;20149;-79
2022/11/20 05:11:14;;;;;;;30.30;18.15;;;;;;;2.66;97.65;100424.47;4997730;28;20108;-79
2022/11/20 05:13:41;;;;;;;28.83;18.30;;;;;;;2.59;97.29;100429.25;4957917;29;20348;-78
2022/11/20 05:16:11;;;;;;;29.73;18.00;;;;;;;2.59;96.94;100425.84;4967179;28;20142;-78
2022/11/20 05:18:38;;;;;;;30.70;18.80;;;;;;;2.64;97.17;100436.69;4979590;28;20116;-79
2022/11/20 05:21:06;;;;;;;29.40;19.02;;;;;;;2.66;97.26;100432.22;4993174;28;20050;-79
2022/11/20 05:23:33;;;;;;;31.27;19.33;;;;;;;2.75;97.74;100438.50;5003515;28;20082;-79
2022/11/20 05:26:01;;;;;;;32.75;19.05;;;;;;;2.71;98.06;100432.72;4992820;28;20074;-81
2022/11/20 05:28:28;;;;;;;32.35;19.17;;;;;;;2.70;97.98;100438.81;4984873;28;20413;-78
2022/11/20 05:30:55;;;;;;;30.08;18.95;;;;;;;2.76;98.31;100440.97;4983657;28;20093;-78
2022/11/20 05:33:23;;;;;;;34.35;20.30;;;;;;;2.76;98.91;100438.38;4997175;28;20082;-77
2022/11/20 05:35:50;;;;;;;31.65;20.48;;;;;;;2.76;98.74;100440.16;4996638;28;20134;-78
2022/11/20 05:38:16;;;;;;;34.53;20.05;;;;;;;2.75;98.64;100436.75;5006430;28;20080;-78
2022/11/20 05:40:43;;;;;;;35.17;19.80;;;;;;;2.80;98.61;100437.22;4989277;28;20098;-78
2022/11/20 05:43:10;;;;;;;32.67;20.08;;;;;;;2.82;98.50;100430.19;5004607;28;20077;-79
2022/11/20 05:45:36;;;;;;;36.60;20.35;;;;;;;2.84;98.45;100436.03;5000932;28;20047;-79
2022/11/20 05:48:03;;;;;;;35.50;20.35;;;;;;;2.89;98.14;100439.13;4985262;28;20054;-78
2022/11/20 05:50:31;;;;;;;36.55;20.92;;;;;;;2.88;98.53;100434.06;4986685;28;20050;-79
2022/11/20 05:52:59;;;;;;;34.70;20.40;;;;;;;2.92;98.69;100428.56;4985777;28;20082;-78
2022/11/20 05:55:25;;;;;;;34.28;20.58;;;;;;;2.85;98.73;100431.69;4983997;28;20082;-78
2022/11/20 05:57:53;;;;;;;34.45;20.35;;;;;;;2.84;99.28;100435.22;4983917;28;20082;-79
2022/11/20 06:00:20;;;;;;;36.08;20.67;;;;;;;2.83;99.41;100431.84;4986394;28;20054;-79
2022/11/20 06:02:46;;;;;;;33.90;20.70;;;;;;;2.84;99.76;100428.28;4987290;28;20078;-79
2022/11/20 06:05:13;;;;;;;32.33;19.52;;;;;;;2.84;100.00;100422.31;4989427;28;20062;-79
2022/11/20 06:07:41;;;;;;;35.60;19.63;;;;;;;2.82;100.00;100429.38;5006401;28;20065;-80
2022/11/20 06:10:09;;;;;;;34.75;19.58;;;;;;;2.85;99.55;100432.53;5004059;28;20061;-79
2022/11/20 06:12:35;;;;;;;36.28;19.33;;;;;;;2.83;99.92;100428.44;5003397;28;20084;-78
2022/11/20 06:15:02;;;;;;;32.35;19.85;;;;;;;2.80;100.00;100424.31;4984980;28;20090;-79
2022/11/20 06:17:28;;;;;;;32.50;19.67;;;;;;;2.78;100.00;100430.53;4987651;28;20398;-79
2022/11/20 06:19:55;;;;;;;36.30;20.50;;;;;;;2.72;100.00;100421.44;4980951;28;20046;-79
2022/11/20 06:22:22;;;;;;;33.58;20.23;;;;;;;2.74;100.00;100417.00;4998824;28;20088;-78
2022/11/20 06:24:50;;;;;;;37.38;20.70;;;;;;;2.75;100.00;100421.22;4985212;28;20085;-79
2022/11/20 06:27:16;;;;;;;33.88;21.08;;;;;;;2.74;100.00;100416.19;4985969;28;20051;-79
2022/11/20 06:29:43;;;;;;;41.03;22.02;;;;;;;2.69;100.00;100423.44;4982704;28;20054;-79
2022/11/20 06:32:20;;;;;;;38.15;21.52;;;;;;;2.67;100.00;100423.53;4980474;28;20051;-78
2022/11/20 06:34:50;;;;;;;37.72;21.85;;;;;;;2.62;100.00;100416.13;4995049;28;20459;-79
2022/11/20 06:37:16;;;;;;;39.15;21.55;;;;;;;2.67;100.00;100426.94;5000277;28;20050;-77
2022/11/20 06:39:43;;;;;;;39.55;21.98;;;;;;;2.59;100.00;100421.50;4998571;28;20061;-79
2022/11/20 06:42:11;;;;;;;34.65;20.80;;;;;;;2.50;100.00;100434.25;4999734;28;20073;-79
2022/11/20 06:44:38;;;;;;;33.33;19.75;;;;;;;2.33;100.00;100418.22;5000045;28;20318;-78
2022/11/20 06:47:05;;;;;;;34.13;20.05;;;;;;;2.33;100.00;100423.38;4986372;28;20054;-78
2022/11/20 06:49:34;;;;;;;35.20;19.80;;;;;;;2.43;100.00;100433.03;4985014;28;20038;-78
2022/11/20 06:52:00;;;;;;;32.42;20.27;;;;;;;2.51;100.00;100433.31;4983737;28;20061;-79
2022/11/20 06:54:30;;;;;;;34.47;20.17;;;;;;;2.51;100.00;100436.72;4979482;28;20051;-78
2022/11/20 06:56:57;;;;;;;35.38;20.65;;;;;;;2.53;100.00;100439.19;4982907;28;20394;-79
2022/11/20 06:59:25;;;;;;;37.92;21.90;;;;;;;2.33;100.00;100415.63;4982727;28;20062;-78
2022/11/20 07:01:51;;;;;;;33.05;20.50;;;;;;;2.47;100.00;100439.63;4980131;28;20109;-78
2022/11/20 07:04:18;;;;;;;38.85;22.60;;;;;;;2.45;100.00;100444.91;4981709;28;20053;-79
2022/11/20 07:06:45;;;;;;;37.25;21.98;;;;;;;2.53;100.00;100457.28;5001431;28;20050;-80
2022/11/20 07:09:11;;;;;;;37.05;21.42;;;;;;;2.59;100.00;100454.25;5002994;28;20450;-80
2022/11/20 07:11:38;;;;;;;39.28;22.25;;;;;;;2.63;100.00;100455.69;5001661;28;20140;-80
2022/11/20 07:14:05;;;;;;;36.28;21.65;;;;;;;2.70;100.00;100456.91;5002830;28;20532;-80
2022/11/20 07:16:33;;;;;;;38.80;22.90;;;;;;;2.72;100.00;100459.38;4987257;28;20050;-80
2022/11/20 07:19:00;;;;;;;38.08;21.88;;;;;;;2.74;100.00;100460.94;4979762;28;20054;-82
2022/11/20 07:21:26;;;;;;;36.72;21.88;;;;;;;2.79;100.00;100469.19;4980704;28;20058;-82
2022/11/20 07:23:54;;;;;;;37.00;21.98;;;;;;;2.86;100.00;100467.78;4975617;28;20134;-80
2022/11/20 07:26:21;;;;;;;40.88;22.45;;;;;;;2.85;100.00;100467.88;4989112;28;20051;-82
2022/11/20 07:28:48;;;;;;;36.10;20.90;;;;;;;2.81;100.00;100466.47;4997856;28;20160;-82
2022/11/20 07:31:14;;;;;;;35.85;20.73;;;;;;;2.88;100.00;100476.25;4988757;28;20066;-81
2022/11/20 07:33:46;;;;;;;36.50;21.23;;;;;;;2.89;100.00;100469.31;4981455;28;20058;-82
2022/11/20 07:36:22;;;;;;;34.57;20.17;;;;;;;2.94;100.00;100480.16;4993247;28;20054;-80
2022/11/20 07:38:55;;;;;;;35.08;20.65;;;;;;;2.99;100.00;100476.28;5094238;23;20111;-79
2022/11/20 07:41:31;;;;;;;36.58;21.42;;;;;;;2.83;100.00;100444.75;5039952;28;20042;-80
2022/11/20 07:44:06;;;;;;;37.50;21.45;;;;;;;2.97;100.00;100460.06;5041247;28;20042;-80
2022/11/20 07:46:33;;;;;;;38.17;21.88;;;;;;;3.01;100.00;100460.69;5035651;28;20049;-80
2022/11/20 07:49:16;;;;;;;39.58;23.98;;;;;;;3.08;100.00;100468.81;5026982;28;20053;-80
2022/11/20 07:51:43;;;;;;;38.65;22.23;;;;;;;3.01;100.00;100460.69;5011295;28;20084;-80
2022/11/20 07:54:10;;;;;;;43.40;26.67;;;;;;;3.07;100.00;100469.75;5030775;23;20074;-78
2022/11/20 07:56:37;;;;;;;37.58;21.92;;;;;;;3.11;100.00;100466.00;5015586;28;20145;-78
2022/11/20 07:59:04;;;;;;;37.13;22.00;;;;;;;3.11;100.00;100460.84;5030324;28;20085;-78
2022/11/20 08:01:30;;;;;;;37.40;22.95;;;;;;;3.18;100.00;100464.63;5014724;28;20057;-76
2022/11/20 08:04:19;;;;;;;40.45;21.90;;;;;;;3.18;100.00;100460.28;5009795;28;20058;-77
2022/11/20 08:06:47;;;;;;;36.05;20.63;;;;;;;3.24;100.00;100462.41;4994817;28;20129;-76
2022/11/20 08:09:14;;;;;;;35.38;21.00;;;;;;;3.25;100.00;100458.88;4993130;28;20436;-77
2022/11/20 08:14:27;;;;;;;34.38;21.45;;;;;;;3.32;100.00;100456.66;4992628;28;20519;-77
2022/11/20 08:16:53;;;;;;;36.60;22.20;;;;;;;3.37;99.91;100457.13;4994320;28;20141;-77
2022/11/20 08:19:20;;;;;;;38.78;21.98;;;;;;;3.41;100.00;100458.56;4989285;28;20150;-78
2022/11/20 08:21:48;;;;;;;35.08;21.77;;;;;;;3.45;99.99;100451.38;5003095;28;20136;-77
2022/11/20 08:24:15;;;;;;;34.20;20.48;;;;;;;3.53;99.29;100460.22;5003758;28;20074;-76
2022/11/20 08:26:41;;;;;;;34.45;20.63;;;;;;;3.55;98.96;100465.28;4992881;28;20498;-77
2022/11/20 08:29:08;;;;;;;35.90;21.50;;;;;;;3.62;99.05;100464.72;4993533;28;20055;-77
2022/11/20 08:31:35;;;;;;;35.13;20.83;;;;;;;3.73;98.99;100461.31;4993594;28;20478;-77
2022/11/20 08:34:01;;;;;;;39.10;23.80;;;;;;;3.84;99.13;100455.31;4994643;28;20097;-77
2022/11/20 08:36:28;;;;;;;40.65;23.77;;;;;;;3.93;98.77;100465.78;4995571;28;20137;-75
2022/11/20 08:38:56;;;;;;;35.60;21.20;;;;;;;3.84;97.38;100455.31;4992310;28;20109;-78
2022/11/20 08:41:26;;;;;;;47.05;31.90;;;;;;;3.94;97.21;100466.63;4993090;28;20196;-77
2022/11/20 08:43:55;;;;;;;29.98;18.48;;;;;;;3.86;96.04;100458.59;4994019;28;20468;-77
2022/11/20 08:46:22;;;;;;;32.55;19.33;;;;;;;3.95;94.87;100463.09;4984015;28;20078;-77
2022/11/20 08:48:49;;;;;;;35.03;18.77;;;;;;;4.00;94.49;100455.78;4986194;28;20129;-76
2022/11/20 08:51:16;;;;;;;29.85;17.35;;;;;;;4.04;93.89;100459.78;4993018;28;20191;-76
2022/11/20 08:53:43;;;;;;;31.42;18.52;;;;;;;4.12;93.26;100454.84;4993516;28;20109;-76
2022/11/20 08:56:11;;;;;;;34.00;19.15;;;;;;;4.24;92.76;100463.44;4994296;28;20058;-77
2022/11/20 08:58:38;;;;;;;32.42;19.88;;;;;;;4.25;93.13;100455.53;4994334;28;20133;-78
2022/11/20 09:01:05;;;;;;;31.52;19.67;;;;;;;4.24;92.96;100464.25;4994426;28;20133;-78
2022/11/20 09:03:32;;;;;;;31.88;21.08;;;;;;;4.30;93.62;100468.13;4994242;28;20082;-77
2022/11/20 09:06:00;;;;;;;32.88;19.73;;;;;;;3.94;93.09;100459.66;4994747;28;20137;-78
2022/11/20 09:08:26;;;;;;;31.75;18.80;;;;;;;3.74;92.51;100457.81;4992967;28;20050;-78
2022/11/20 09:10:53;;;;;;;30.48;18.02;;;;;;;3.62;93.32;100462.13;5001342;28;20105;-78
2022/11/20 09:13:22;;;;;;;28.42;17.40;;;;;;;3.83;93.55;100457.06;4993906;28;20129;-78
2022/11/20 09:15:54;;;;;;;28.30;17.00;;;;;;;3.79;92.90;100447.88;4992705;28;20080;-78
2022/11/20 09:18:20;;;;;;;36.45;19.60;;;;;;;3.79;92.86;100436.72;4993919;28;20090;-78
2022/11/20 09:20:47;;;;;;;37.22;20.77;;;;;;;3.83;93.24;100430.38;4994328;28;20132;-78
2022/11/20 09:23:14;;;;;;;32.22;19.83;;;;;;;4.02;93.17;100433.19;4993781;28;20047;-79
2022/11/20 09:25:40;;;;;;;34.35;19.52;;;;;;;3.99;92.67;100428.25;4993802;28;20146;-77
2022/11/20 09:28:07;;;;;;;33.42;19.70;;;;;;;3.98;92.95;100424.00;4993379;28;20550;-78
2022/11/20 09:30:35;;;;;;;32.63;19.40;;;;;;;4.22;92.36;100429.06;4993433;28;20081;-77
2022/11/20 09:33:02;;;;;;;34.45;20.10;;;;;;;4.27;92.22;100422.56;4993905;28;20137;-76
2022/11/20 09:35:28;;;;;;;37.60;21.63;;;;;;;4.73;91.88;100433.63;4992645;28;20428;-76
2022/11/20 09:37:55;;;;;;;33.15;21.05;;;;;;;4.71;91.65;100427.75;4993744;28;20081;-77
2022/11/20 09:40:23;;;;;;;37.08;21.38;;;;;;;4.73;91.48;100429.25;4993656;28;20082;-77
2022/11/20 09:42:58;;;;;;;35.25;20.30;;;;;;;4.67;91.52;100429.78;4993773;28;20125;-77
2022/11/20 09:45:36;;;;;;;39.97;21.40;;;;;;;4.11;92.87;100427.31;4993562;28;20198;-76
2022/11/20 09:48:17;;;;;;;38.03;21.60;;;;;;;4.06;93.53;100429.44;4973832;28;20085;-75
2022/11/20 09:50:50;;;;;;;36.78;21.92;;;;;;;4.17;93.78;100419.06;4975056;28;20506;-77
2022/11/20 09:53:21;;;;;;;;;;;;;;;4.09;94.55;100421.44;4975766;28;20104;-77
2022/11/20 09:55:49;;;;;;;38.20;21.27;;;;;;;4.26;93.90;100420.91;4994452;28;19925;-76
2022/11/20 09:58:25;;;;;;;36.90;21.17;;;;;;;4.46;93.59;100426.28;4993954;28;20296;-77
2022/11/20 10:00:56;;;;;;;35.20;21.70;;;;;;;4.38;93.57;100433.84;4972687;28;20074;-77
2022/11/20 10:03:36;;;;;;;38.28;21.52;;;;;;;4.60;93.41;100431.22;4982134;28;20125;-77
2022/11/20 10:06:06;;;;;;;37.33;21.55;;;;;;;4.26;93.41;100426.09;4987538;28;20130;-77
2022/11/20 10:08:40;;;;;;;38.47;21.65;;;;;;;4.27;93.37;100422.56;4993131;28;20088;-77
2022/11/20 10:11:15;;;;;;;100.97;50.85;;;;;;;4.60;94.18;100424.25;5005346;28;20141;-77
2022/11/20 10:13:56;;;;;;;45.10;25.58;;;;;;;4.80;94.61;100438.19;4992230;28;20133;-77
2022/11/20 10:16:33;;;;;;;39.45;21.50;;;;;;;4.80;93.45;100435.59;4993019;28;20137;-77
2022/11/20 10:19:18;;;;;;;37.03;22.10;;;;;;;4.73;93.47;100423.25;4992401;28;20133;-77
2022/11/20 10:22:03;;;;;;;36.97;21.70;;;;;;;4.78;94.01;100414.16;4996409;28;20053;-77
2022/11/20 10:24:55;;;;;;;35.47;20.83;;;;;;;4.85;94.08;100407.53;4992624;28;20435;-77
2022/11/20 10:27:40;;;;;;;35.97;20.55;;;;;;;4.89;93.96;100402.94;4992062;28;20136;-77
2022/11/20 10:30:10;;;;;;;54.80;33.47;;;;;;;5.02;93.30;100387.19;4972568;28;20141;-77
2022/11/20 10:32:39;;;;;;;36.33;20.92;;;;;;;4.60;93.17;100369.84;4981834;28;20053;-78
2022/11/20 10:35:17;;;;;;;34.58;21.02;;;;;;;4.93;93.44;100379.22;4993371;28;20133;-78
2022/11/20 10:37:47;;;;;;;35.25;21.08;;;;;;;5.13;92.32;100379.34;4993503;28;20089;-78
2022/11/20 10:40:24;;;;;;;34.75;20.88;;;;;;;5.26;91.69;100369.56;4993033;28;20082;-78
2022/11/20 10:42:55;;;;;;;36.58;21.73;;;;;;;5.14;91.09;100370.63;4988106;28;20117;-77
2022/11/20 10:45:36;;;;;;;34.65;20.02;;;;;;;4.74;91.52;100360.09;4988727;28;20046;-78
2022/11/20 10:48:13;;;;;;;36.70;21.15;;;;;;;4.66;92.48;100368.53;5011432;28;20257;-78
2022/11/20 10:50:52;;;;;;;35.70;21.42;;;;;;;4.47;92.46;100355.38;5012967;28;20085;-78
2022/11/20 10:53:32;;;;;;;35.10;20.65;;;;;;;4.43;93.20;100341.03;4992584;28;20137;-78
2022/11/20 10:56:06;;;;;;;33.90;20.50;;;;;;;4.70;93.19;100351.78;4992711;28;20046;-80
2022/11/20 10:58:39;;;;;;;33.58;19.33;;;;;;;4.94;93.23;100339.38;4996229;28;20064;-78
2022/11/20 11:01:06;;;;;;;34.33;19.73;;;;;;;4.96;92.58;100340.06;4991129;28;20189;-78
2022/11/20 11:03:34;;;;;;;35.78;20.90;;;;;;;4.73;92.52;100328.16;4990008;28;20050;-78
2022/11/20 11:06:11;;;;;;;37.88;19.17;;;;;;;4.90;92.68;100332.78;4990543;28;20050;-78
2022/11/20 11:08:40;;;;;;;32.55;19.55;;;;;;;5.07;93.40;100335.78;4989944;28;20099;-77
2022/11/20 11:11:21;;;;;;;35.05;20.98;;;;;;;4.98;93.10;100325.22;4977342;28;20054;-79
2022/11/20 11:13:48;;;;;;;38.33;20.67;;;;;;;4.58;93.46;100322.50;4984520;28;20133;-78
2022/11/20 11:16:22;;;;;;;40.35;21.15;;;;;;;4.66;93.87;100316.69;4988951;28;20050;-77
2022/11/20 11:18:49;;;;;;;37.17;21.40;;;;;;;4.69;93.79;100315.63;4988125;28;20049;-78
2022/11/20 11:21:24;;;;;;;43.75;24.77;;;;;;;4.58;93.86;100316.50;4990614;28;20054;-78
2022/11/20 11:24:00;;;;;;;40.28;23.80;;;;;;;4.59;93.70;100312.94;4989073;28;20058;-77
2022/11/20 11:26:27;;;;;;;40.90;23.23;;;;;;;4.73;94.52;100311.78;4988111;28;20047;-78